Time;durP1;ratioP1;P1;durP2;ratioP2;P2;SDS_P1;SDS_P2;PMS_P1;PMS_P2;Temp;Humidity;BMP_temperature;BMP_pressure;BME280_temperature;BME280_humidity;BME280_pressure;Samples;Min_cycle;Max_cycle;Signal;HPM_P1;HPM_P2
2020/12/01 00:00:26;;;;;;;29.00;18.97;;;0.50;99.90;;;1.38;77.21;94559.50;5090467;28;20178;-71
2020/12/01 00:02:51;;;;;;;32.07;20.03;;;0.50;99.90;;;1.40;77.15;94557.53;5081946;28;20174;-71
2020/12/01 00:05:22;;;;;;;30.23;19.70;;;0.50;99.90;;;1.33;77.09;94558.47;5074741;28;20186;-71
2020/12/01 00:07:50;;;;;;;30.73;18.93;;;0.40;99.90;;;1.28;76.89;94539.94;5075079;28;20217;-71
2020/12/01 00:10:19;;;;;;;28.57;18.33;;;0.40;99.90;;;1.32;76.85;94546.41;5088116;28;20214;-72
2020/12/01 00:12:48;;;;;;;32.57;19.07;;;0.30;99.90;;;1.24;76.37;94529.13;5079127;28;20205;-72
2020/12/01 00:15:20;;;;;;;29.70;18.90;;;0.30;99.90;;;1.21;76.91;94526.84;5081530;28;20621;-72
2020/12/01 00:17:46;;;;;;;30.60;19.70;;;0.30;99.90;;;1.25;76.50;94543.75;5089478;28;20190;-72
2020/12/01 00:20:15;;;;;;;30.73;18.57;;;0.30;99.90;;;1.24;76.85;94533.53;5076351;28;20191;-72
2020/12/01 00:22:40;;;;;;;32.20;19.77;;;0.20;99.90;;;1.19;77.02;94535.88;5100908;28;20652;-72
2020/12/01 00:25:09;;;;;;;31.27;19.50;;;0.20;99.90;;;1.17;76.58;94530.88;5063354;28;20186;-71
2020/12/01 00:27:35;;;;;;;27.43;17.50;;;0.20;99.90;;;1.22;77.17;94530.28;5089305;28;20728;-71
2020/12/01 00:30:21;;;;;;;30.87;18.53;;;0.20;99.90;;;1.25;76.97;94535.94;5077985;28;20183;-72
2020/12/01 00:32:47;;;;;;;32.97;17.63;;;0.30;99.90;;;1.22;77.06;94541.53;5068221;28;20187;-71
2020/12/01 00:35:16;;;;;;;31.77;18.17;;;0.20;99.90;;;1.22;76.87;94538.91;5093142;28;20185;-72
2020/12/01 00:37:45;;;;;;;29.13;19.33;;;0.20;99.90;;;1.26;76.39;94532.31;5064975;28;20205;-71
2020/12/01 00:40:13;;;;;;;30.00;18.57;;;0.30;99.90;;;1.21;77.24;94532.06;5082590;28;20196;-71
2020/12/01 00:42:40;;;;;;;29.93;18.50;;;0.20;99.90;;;1.15;77.11;94526.81;5066884;28;20217;-71
2020/12/01 00:45:09;;;;;;;28.93;18.70;;;0.20;99.90;;;1.17;76.52;94535.28;5090152;28;20178;-71
2020/12/01 00:47:35;;;;;;;28.63;18.50;;;0.10;99.90;;;1.20;76.62;94533.09;5085308;28;20210;-71
2020/12/01 00:50:02;;;;;;;32.13;19.37;;;0.20;99.90;;;1.14;76.80;94526.03;5099283;28;20263;-71
2020/12/01 00:52:28;;;;;;;35.80;20.00;;;0.20;99.90;;;1.16;77.16;94525.81;5080955;28;20179;-71
2020/12/01 00:54:54;;;;;;;31.20;19.17;;;0.20;99.90;;;1.14;77.11;94533.88;5079833;28;20674;-71
2020/12/01 00:57:21;;;;;;;32.97;18.80;;;0.20;99.90;;;1.07;77.12;94540.03;5086560;28;20174;-71
2020/12/01 00:59:47;;;;;;;32.07;19.10;;;0.10;99.90;;;1.14;77.15;94535.66;5056133;28;20668;-72
2020/12/01 01:02:13;;;;;;;33.27;18.63;;;0.10;99.90;;;1.10;77.03;94542.25;5079793;28;20186;-71
2020/12/01 01:04:39;;;;;;;32.03;19.03;;;0.10;99.90;;;1.13;77.05;94549.72;5067667;28;20182;-71
2020/12/01 01:07:04;;;;;;;30.93;19.77;;;0.10;99.90;;;1.08;76.97;94550.25;5064739;28;20306;-71
2020/12/01 01:09:30;;;;;;;31.53;19.93;;;0.10;99.90;;;1.07;76.69;94540.84;5095502;28;20235;-71
2020/12/01 01:11:56;;;;;;;30.67;19.23;;;0.10;99.90;;;0.99;76.59;94536.56;5096912;28;20654;-71
2020/12/01 01:14:22;;;;;;;31.60;19.27;;;0.10;99.90;;;1.06;77.13;94535.81;5082274;28;20178;-72
2020/12/01 01:16:49;;;;;;;33.40;18.67;;;0.10;99.90;;;1.00;76.59;94535.59;5087971;28;20186;-71
2020/12/01 01:19:15;;;;;;;29.93;19.13;;;0.00;99.90;;;0.93;76.88;94523.47;5084384;28;20255;-72
2020/12/01 01:21:43;;;;;;;32.50;19.17;;;-0.10;99.90;;;0.96;77.20;94521.28;5082337;28;20647;-72
2020/12/01 01:24:12;;;;;;;30.93;19.07;;;-0.10;99.90;;;0.94;76.50;94525.09;5085882;28;20194;-71
2020/12/01 01:26:38;;;;;;;31.77;19.80;;;-0.10;99.90;;;0.89;76.90;94523.06;5088770;28;20551;-71
2020/12/01 01:29:04;;;;;;;34.90;20.20;;;-0.10;99.90;;;0.84;76.93;94511.59;5087358;28;20188;-72
2020/12/01 01:31:31;;;;;;;33.07;20.57;;;-0.20;99.90;;;0.92;76.79;94519.25;5059705;28;20195;-71
2020/12/01 01:33:58;;;;;;;32.57;19.43;;;-0.20;99.90;;;0.96;77.39;94516.09;5079352;28;20190;-71
2020/12/01 01:36:24;;;;;;;30.70;19.70;;;-0.10;99.90;;;0.87;77.09;94517.19;5087964;28;20671;-71
2020/12/01 01:38:50;;;;;;;31.40;19.83;;;-0.20;99.90;;;0.91;76.67;94531.47;5097693;28;20187;-71
2020/12/01 01:41:16;;;;;;;34.43;20.00;;;-0.10;99.90;;;0.96;76.84;94526.50;5081351;28;20658;-71
2020/12/01 01:43:43;;;;;;;32.33;19.63;;;-0.10;99.90;;;0.99;76.95;94528.75;5088653;28;20190;-71
2020/12/01 01:46:35;;;;;;;30.97;19.07;;;-0.10;99.90;;;0.99;76.59;94535.75;5084143;28;20226;-72
2020/12/01 01:49:04;;;;;;;28.60;18.77;;;0.00;99.90;;;1.01;77.18;94518.91;5082316;28;20251;-71
2020/12/01 01:51:34;;;;;;;31.07;20.00;;;0.00;99.90;;;1.03;77.15;94529.97;5088725;28;20204;-71
2020/12/01 01:54:00;;;;;;;30.17;18.83;;;0.00;99.90;;;1.02;76.64;94527.53;5089579;28;20174;-72
2020/12/01 01:56:32;;;;;;;33.30;19.27;;;0.00;99.90;;;1.00;76.92;94524.34;5074094;28;20209;-72
2020/12/01 01:59:00;;;;;;;31.50;18.40;;;0.00;99.90;;;1.00;77.07;94511.28;5080318;28;20199;-71
2020/12/01 02:01:28;;;;;;;28.60;17.87;;;0.00;99.90;;;0.99;76.79;94517.50;5072340;28;20192;-71
2020/12/01 02:04:01;;;;;;;28.90;18.83;;;0.00;99.90;;;1.00;77.14;94517.31;5083030;28;20194;-71
2020/12/01 02:06:45;;;;;;;29.93;18.97;;;0.00;99.90;;;0.98;77.24;94508.03;5072418;28;20229;-71
2020/12/01 02:09:24;;;;;;;27.30;17.40;;;-0.10;99.90;;;0.99;77.01;94510.47;5090320;28;20679;-71
2020/12/01 02:11:50;;;;;;;25.87;17.43;;;0.00;99.90;;;0.99;77.28;94502.66;5076484;28;20534;-71
2020/12/01 02:14:24;;;;;;;29.07;19.20;;;0.00;99.90;;;1.01;77.33;94510.28;5075244;28;20232;-71
2020/12/01 02:17:31;;;;;;;29.67;18.20;;;0.00;99.90;;;0.97;77.09;94501.25;5084829;28;20179;-71
2020/12/01 02:20:06;;;;;;;30.03;18.73;;;0.00;99.90;;;0.96;77.44;94495.22;5079023;28;20191;-71
2020/12/01 02:22:33;;;;;;;27.40;18.10;;;0.00;99.90;;;0.94;77.19;94491.97;5100462;28;20193;-72
2020/12/01 02:24:59;;;;;;;27.07;17.53;;;-0.10;99.90;;;0.98;76.62;94487.97;5077066;28;20191;-72
2020/12/01 02:27:27;;;;;;;28.83;19.03;;;-0.10;99.90;;;0.98;76.72;94482.75;5080225;28;20677;-71
2020/12/01 02:29:57;;;;;;;30.97;19.63;;;-0.10;99.90;;;1.00;77.00;94474.75;5102787;28;20186;-71
2020/12/01 02:32:25;;;;;;;28.40;18.30;;;0.00;99.90;;;1.02;76.95;94472.75;5089995;28;20183;-72
2020/12/01 02:35:00;;;;;;;28.33;17.77;;;0.00;99.90;;;1.02;76.87;94473.56;5071727;28;20648;-71
2020/12/01 02:37:29;;;;;;;28.10;18.20;;;0.00;99.90;;;1.07;76.61;94461.75;5087522;28;20197;-71
2020/12/01 02:39:56;;;;;;;27.07;17.73;;;0.00;99.90;;;1.04;77.28;94465.56;5083328;28;20189;-71
2020/12/01 02:42:27;;;;;;;28.40;18.50;;;0.00;99.90;;;1.13;76.96;94466.19;5079829;28;20732;-72
2020/12/01 02:44:56;;;;;;;31.37;19.40;;;0.00;99.90;;;1.05;76.88;94456.72;5056608;28;20190;-72
2020/12/01 02:47:23;;;;;;;28.67;18.00;;;0.00;99.90;;;1.12;77.53;94448.91;5091582;28;20735;-72
2020/12/01 02:49:49;;;;;;;28.40;18.47;;;0.00;99.90;;;1.19;76.88;94442.72;5070841;28;20206;-72
2020/12/01 02:52:15;;;;;;;27.77;18.37;;;0.10;99.90;;;1.26;77.18;94447.97;5089224;28;20265;-71
2020/12/01 02:54:41;;;;;;;27.53;18.23;;;0.20;99.90;;;1.29;76.84;94426.72;5083698;28;20220;-71
2020/12/01 02:57:07;;;;;;;28.87;18.87;;;0.20;99.90;;;1.29;76.84;94416.28;5099476;28;20294;-72
2020/12/01 02:59:33;;;;;;;28.57;18.83;;;0.20;99.90;;;1.32;77.03;94426.31;5079036;28;20661;-72
2020/12/01 03:01:59;;;;;;;29.73;18.67;;;0.30;99.90;;;1.35;77.07;94413.69;5083326;28;20240;-72
2020/12/01 03:04:25;;;;;;;29.30;18.93;;;0.30;99.90;;;1.40;77.34;94408.69;5071954;28;20216;-72
2020/12/01 03:06:51;;;;;;;28.87;18.93;;;0.40;99.90;;;1.47;76.73;94395.66;5068626;28;20758;-72
2020/12/01 03:09:19;;;;;;;27.43;17.27;;;0.40;99.90;;;1.50;77.30;94397.88;5096137;28;20197;-72
2020/12/01 03:11:46;;;;;;;27.97;18.50;;;0.40;99.90;;;1.43;77.77;94395.25;5078347;28;20586;-71
2020/12/01 03:14:12;;;;;;;28.37;17.47;;;0.40;99.90;;;1.42;77.26;94391.00;5076207;28;20175;-71
2020/12/01 03:16:39;;;;;;;25.73;17.80;;;0.40;99.90;;;1.43;76.85;94376.16;5088002;28;20198;-71
2020/12/01 03:19:05;;;;;;;27.83;17.50;;;0.40;99.90;;;1.43;76.40;94369.13;5085547;28;20217;-71
2020/12/01 03:21:30;;;;;;;27.67;17.43;;;0.40;99.90;;;1.61;76.77;94367.78;5088312;28;20209;-72
2020/12/01 03:23:56;;;;;;;26.67;17.23;;;0.50;99.90;;;1.60;76.92;94350.47;5072166;28;20183;-72
2020/12/01 03:26:22;;;;;;;27.47;18.20;;;0.50;99.90;;;1.54;76.76;94352.09;5071238;28;20262;-72
2020/12/01 03:28:48;;;;;;;26.43;17.33;;;0.50;99.90;;;1.61;77.40;94350.31;5080119;28;20198;-72
2020/12/01 03:31:19;;;;;;;28.87;18.20;;;0.50;99.90;;;1.62;77.13;94344.06;5085816;28;20201;-72
2020/12/01 03:33:45;;;;;;;26.77;17.67;;;0.60;99.90;;;1.66;77.46;94334.81;5074850;28;20222;-71
2020/12/01 03:36:11;;;;;;;26.83;17.90;;;0.60;99.90;;;1.72;76.93;94326.19;5075189;28;20215;-72
2020/12/01 03:38:37;;;;;;;26.27;18.30;;;0.70;99.90;;;1.82;77.21;94325.78;5079701;28;20194;-72
2020/12/01 03:41:04;;;;;;;27.90;18.73;;;0.80;99.90;;;1.86;77.36;94313.94;5082044;28;20192;-72
2020/12/01 03:43:31;;;;;;;25.20;18.30;;;0.80;99.90;;;1.87;77.43;94321.59;5082413;28;20195;-72
2020/12/01 03:45:57;;;;;;;28.23;18.13;;;0.80;99.90;;;1.88;77.58;94331.00;5086744;28;20645;-72
2020/12/01 03:48:23;;;;;;;26.70;17.80;;;0.90;99.90;;;2.00;77.70;94331.22;5075592;28;20194;-72
2020/12/01 03:50:50;;;;;;;27.60;18.53;;;1.00;99.90;;;1.96;77.35;94324.78;5073642;28;20191;-72
2020/12/01 03:53:16;;;;;;;29.93;19.13;;;1.00;99.90;;;1.97;76.99;94321.19;5062990;28;20182;-72
2020/12/01 03:55:42;;;;;;;27.83;18.33;;;1.00;99.90;;;1.99;77.32;94313.94;5064603;28;20185;-72
2020/12/01 03:58:07;;;;;;;30.43;19.60;;;1.00;99.90;;;1.96;77.61;94315.16;5056047;28;20179;-72
2020/12/01 04:00:33;;;;;;;29.17;19.13;;;1.10;99.90;;;1.99;76.81;94312.13;5075634;28;20178;-71
2020/12/01 04:02:59;;;;;;;27.73;18.83;;;1.10;99.90;;;2.00;77.94;94303.28;5100704;28;20208;-71
2020/12/01 04:05:28;;;;;;;32.03;19.83;;;1.00;99.90;;;1.95;77.17;94297.03;5091995;28;20191;-71
2020/12/01 04:07:56;;;;;;;27.37;19.30;;;1.00;99.90;;;1.88;76.95;94291.03;5085140;28;20206;-71
2020/12/01 04:10:26;;;;;;;30.70;20.20;;;1.00;99.90;;;1.88;77.40;94302.28;5081063;28;20179;-71
2020/12/01 04:12:54;;;;;;;33.43;20.63;;;1.00;99.90;;;1.84;77.93;94295.88;5074883;28;20677;-71
2020/12/01 04:15:23;;;;;;;29.60;20.13;;;0.90;99.90;;;1.79;77.31;94282.59;5080264;28;20239;-71
2020/12/01 04:17:49;;;;;;;30.57;19.40;;;0.90;99.90;;;1.81;76.94;94269.34;5062134;28;20194;-71
2020/12/01 04:20:16;;;;;;;33.70;20.90;;;0.90;99.90;;;1.76;77.23;94269.13;5100665;28;20262;-71
2020/12/01 04:22:44;;;;;;;30.97;20.93;;;0.90;99.90;;;1.74;77.70;94274.56;5082356;28;20648;-71
2020/12/01 04:25:11;;;;;;;28.47;19.90;;;0.90;99.90;;;1.68;77.65;94254.44;5084337;28;20189;-71
2020/12/01 04:27:38;;;;;;;28.80;19.30;;;0.80;99.90;;;1.73;77.20;94259.06;5076907;28;20248;-71
2020/12/01 04:30:07;;;;;;;29.03;19.93;;;0.80;99.90;;;1.76;78.00;94250.84;5066000;28;20182;-71
2020/12/01 04:32:33;;;;;;;26.03;17.40;;;0.80;99.90;;;1.70;77.99;94239.38;5084698;28;20186;-71
2020/12/01 04:35:00;;;;;;;27.93;19.13;;;0.70;99.90;;;1.59;77.44;94232.16;5073627;28;20187;-71
2020/12/01 04:37:25;;;;;;;25.60;18.43;;;0.60;99.90;;;1.57;77.56;94231.56;5091407;28;20185;-71
2020/12/01 04:39:51;;;;;;;24.70;17.67;;;0.60;99.90;;;1.49;77.57;94227.34;5098391;28;20193;-71
2020/12/01 04:42:20;;;;;;;24.10;17.07;;;0.50;99.90;;;1.53;77.09;94225.94;5090438;28;20186;-71
2020/12/01 04:45:05;;;;;;;22.57;16.93;;;0.60;99.90;;;1.64;77.83;94219.31;5083355;28;20183;-70
2020/12/01 04:48:02;;;;;;;25.43;16.40;;;0.60;99.90;;;1.63;77.75;94211.66;5083861;28;20198;-71
2020/12/01 04:50:52;;;;;;;21.73;15.57;;;0.60;99.90;;;1.66;77.70;94199.00;5084791;28;20244;-71
2020/12/01 04:54:01;;;;;;;23.63;15.70;;;0.60;99.90;;;1.77;77.34;94202.81;5073185;28;20256;-71
2020/12/01 04:57:21;;;;;;;24.13;15.37;;;0.70;99.90;;;1.84;77.79;94186.13;5075545;28;20221;-71
2020/12/01 05:00:09;;;;;;;22.30;15.50;;;0.80;99.90;;;1.92;77.24;94185.91;5069755;28;20187;-71
2020/12/01 05:03:01;;;;;;;21.70;14.87;;;0.80;99.90;;;1.85;77.87;94182.50;5071767;28;20198;-71
2020/12/01 05:08:45;;;;;;;24.97;16.17;;;0.80;99.90;;;1.94;78.28;94185.69;5084467;28;20543;-71
2020/12/01 05:11:39;;;;;;;21.63;15.23;;;0.90;99.90;;;1.91;77.44;94176.47;5069909;28;20543;-71
2020/12/01 05:14:54;;;;;;;22.87;15.73;;;0.90;99.90;;;1.91;77.80;94173.84;5075086;28;20167;-71
2020/12/01 05:17:41;;;;;;;23.13;16.10;;;0.90;99.90;;;1.90;77.44;94185.31;5022721;28;20241;-72
2020/12/01 05:20:07;;;;;;;24.57;16.07;;;0.90;99.90;;;1.88;77.60;94169.00;5035132;28;20198;-72
2020/12/01 05:22:33;;;;;;;20.17;14.47;;;0.90;99.90;;;1.85;77.20;94174.66;5028638;28;20223;-71
2020/12/01 05:24:59;;;;;;;19.77;13.23;;;0.90;99.90;;;1.90;77.75;94159.19;5029466;28;20200;-71
2020/12/01 05:27:33;;;;;;;20.97;13.80;;;0.90;99.90;;;1.96;77.73;94158.34;5050605;28;20261;-71
2020/12/01 05:30:07;;;;;;;18.40;13.03;;;0.90;99.90;;;2.00;78.11;94141.25;5044055;28;20283;-71
2020/12/01 05:32:50;;;;;;;19.97;13.53;;;0.90;99.90;;;2.02;77.73;94138.44;5044932;28;20193;-70
2020/12/01 05:35:18;;;;;;;17.03;12.10;;;0.90;99.90;;;1.96;78.42;94131.41;5039709;28;20280;-71
2020/12/01 05:38:05;;;;;;;18.77;12.60;;;0.90;99.90;;;1.99;78.27;94138.84;5041266;28;20215;-71
2020/12/01 05:40:35;;;;;;;17.13;11.83;;;0.90;99.90;;;2.00;77.67;94132.63;5048726;28;20189;-71
2020/12/01 05:43:02;;;;;;;19.10;12.57;;;0.90;99.90;;;2.02;78.22;94126.16;5032325;28;20181;-71
2020/12/01 05:45:36;;;;;;;21.20;12.93;;;0.90;99.90;;;2.06;78.53;94129.97;5032704;28;20199;-71
2020/12/01 05:48:40;;;;;;;17.70;12.83;;;1.00;99.90;;;2.16;78.09;94129.53;5038029;28;20222;-72
2020/12/01 05:51:15;;;;;;;15.27;11.47;;;1.10;99.90;;;2.19;77.46;94115.25;5057816;28;20191;-71
2020/12/01 05:53:42;;;;;;;13.77;10.80;;;1.20;99.90;;;2.20;78.26;94109.81;5075436;28;20200;-71
2020/12/01 05:56:21;;;;;;;12.47;9.97;;;1.20;99.90;;;2.18;78.19;94095.34;5067726;28;20610;-71
2020/12/01 05:59:03;;;;;;;12.23;9.40;;;1.10;99.90;;;2.18;78.55;94109.22;5063038;28;20179;-71
2020/12/01 06:01:43;;;;;;;11.50;10.03;;;1.20;99.90;;;2.17;78.56;94102.41;5086778;28;20194;-71
2020/12/01 06:04:17;;;;;;;12.50;10.10;;;1.20;99.90;;;2.10;77.91;94082.50;5063728;28;20236;-71
2020/12/01 06:07:18;;;;;;;13.90;10.53;;;1.20;99.90;;;2.22;78.21;94088.69;5076220;28;20219;-71
2020/12/01 06:10:28;;;;;;;15.13;10.93;;;1.20;99.90;;;2.00;78.01;94096.84;5075181;28;20240;-71
2020/12/01 06:13:26;;;;;;;15.87;11.07;;;1.10;99.90;;;2.13;77.80;94095.97;5089044;28;20225;-71
2020/12/01 06:16:07;;;;;;;17.10;11.83;;;1.10;99.90;;;2.29;78.00;94089.44;5085521;28;20171;-71
2020/12/01 06:19:02;;;;;;;15.00;11.37;;;1.20;99.90;;;2.23;78.32;94079.84;5097471;28;20179;-71
2020/12/01 06:22:14;;;;;;;15.90;11.87;;;1.30;99.90;;;2.17;77.90;94091.94;5071225;28;20213;-71
2020/12/01 06:25:19;;;;;;;16.07;12.40;;;1.10;99.90;;;2.26;78.68;94079.41;5045870;28;20314;-71
2020/12/01 06:28:25;;;;;;;17.17;12.13;;;1.20;99.90;;;2.33;78.35;94088.84;5081359;28;20217;-71
2020/12/01 06:31:05;;;;;;;15.10;11.70;;;1.30;99.90;;;2.32;78.04;94075.97;5085731;28;20183;-71
2020/12/01 06:33:58;;;;;;;14.73;11.60;;;1.30;99.90;;;2.43;78.05;94086.56;5086597;28;20302;-71
2020/12/01 06:37:19;;;;;;;14.13;10.87;;;1.30;99.90;;;2.52;78.46;94074.84;5090937;28;20185;-71
2020/12/01 06:39:53;;;;;;;14.87;11.50;;;1.40;99.90;;;2.48;77.74;94070.25;5069269;28;20236;-71
2020/12/01 06:42:36;;;;;;;13.33;10.93;;;1.40;99.90;;;2.53;78.58;94071.22;5052677;28;20607;-71
2020/12/01 06:45:36;;;;;;;14.13;11.13;;;1.40;99.90;;;2.48;78.58;94068.44;5048888;28;20247;-71
2020/12/01 06:48:22;;;;;;;15.63;12.10;;;1.50;99.90;;;2.41;78.42;94067.69;5052908;28;20210;-73
2020/12/01 06:50:56;;;;;;;15.50;11.67;;;1.40;99.90;;;2.42;77.91;94071.06;5072358;28;20191;-74
2020/12/01 06:53:36;;;;;;;14.63;11.60;;;1.50;99.90;;;2.53;78.56;94067.78;5055788;28;20186;-74
2020/12/01 06:56:10;;;;;;;12.40;9.87;;;1.60;99.90;;;2.50;78.73;94076.06;5059823;28;20239;-73
2020/12/01 06:58:42;;;;;;;11.53;9.30;;;1.60;99.90;;;2.45;78.34;94052.38;5066002;28;20215;-74
2020/12/01 07:01:29;;;;;;;9.03;7.77;;;1.60;99.90;;;2.40;78.82;94063.44;5082726;28;20193;-75
2020/12/01 07:04:13;;;;;;;9.60;8.10;;;1.50;99.90;;;2.53;78.60;94076.44;5067729;28;20189;-75
2020/12/01 07:06:58;;;;;;;8.87;7.97;;;1.60;99.90;;;2.45;78.10;94081.91;5095367;28;20248;-76
2020/12/01 07:09:42;;;;;;;8.70;7.60;;;1.50;99.90;;;2.59;78.86;94077.41;5082718;28;20676;-75
2020/12/01 07:12:12;;;;;;;8.10;7.10;;;1.60;99.90;;;2.57;78.88;94082.06;5082278;28;20218;-74
2020/12/01 07:14:44;;;;;;;9.13;7.97;;;1.60;99.90;;;2.61;78.72;94074.59;5081512;28;20186;-73
2020/12/01 07:17:21;;;;;;;10.32;9.50;;;1.60;99.90;;;2.37;77.90;94079.56;5079932;28;20444;-73
2020/12/01 07:20:24;;;;;;;7.83;7.13;;;1.60;99.90;;;2.51;78.53;94088.13;5077817;28;20191;-73
2020/12/01 07:22:55;;;;;;;7.00;6.30;;;1.50;99.90;;;2.63;78.65;94054.25;5079738;28;20187;-72
2020/12/01 07:25:21;;;;;;;6.27;5.67;;;1.60;99.90;;;2.57;78.26;94071.59;5104569;28;20318;-72
2020/12/01 07:28:05;;;;;;;6.17;5.57;;;1.60;99.90;;;2.59;78.78;94066.94;5085974;28;20240;-72
2020/12/01 07:31:00;;;;;;;6.23;5.63;;;1.70;99.90;;;2.49;78.83;94085.72;5078929;28;20201;-73
2020/12/01 07:33:37;;;;;;;6.67;6.07;;;1.50;99.90;;;2.58;78.93;94088.91;5075628;28;20189;-73
2020/12/01 07:36:33;;;;;;;6.70;6.10;;;1.70;99.90;;;2.68;78.30;94086.63;5088272;28;20171;-73
2020/12/01 07:39:29;;;;;;;6.00;5.40;;;1.80;99.90;;;2.78;78.27;94079.09;5095075;28;20270;-72
2020/12/01 07:42:02;;;;;;;6.77;6.17;;;1.90;99.90;;;2.83;78.44;94081.06;5030052;28;20200;-73
2020/12/01 07:44:39;;;;;;;6.30;5.70;;;1.90;99.90;;;2.85;78.69;94076.44;5047149;28;20191;-73
2020/12/01 07:47:23;;;;;;;5.67;5.17;;;2.00;99.90;;;2.74;78.19;94075.31;5032263;28;20579;-73
2020/12/01 07:50:20;;;;;;;5.50;5.00;;;1.90;99.90;;;2.84;78.50;94083.50;5045947;28;20188;-72
2020/12/01 07:52:48;;;;;;;5.50;5.00;;;1.90;99.90;;;2.87;78.61;94077.81;5048127;28;20249;-72
2020/12/01 07:55:34;;;;;;;5.10;4.60;;;2.00;99.90;;;2.86;78.54;94086.69;5030406;28;20183;-72
2020/12/01 07:58:06;;;;;;;4.97;4.57;;;2.00;99.90;;;2.86;78.70;94081.44;5038487;28;20180;-71
2020/12/01 08:00:32;;;;;;;5.10;4.60;;;2.00;99.90;;;2.86;78.56;94098.97;5032139;28;20188;-72
2020/12/01 08:03:11;;;;;;;5.77;5.20;;;2.00;99.90;;;2.91;78.39;94102.56;5031362;28;20290;-73
2020/12/01 08:05:37;;;;;;;5.13;4.63;;;2.10;99.90;;;2.99;78.42;94109.34;5027062;28;20191;-73
2020/12/01 08:08:03;;;;;;;6.40;5.80;;;2.10;99.90;;;2.93;78.04;94100.53;5030584;28;20204;-73
2020/12/01 08:10:30;;;;;;;7.00;6.30;;;2.00;99.90;;;3.01;78.62;94102.09;5015482;28;20281;-72
2020/12/01 08:13:05;;;;;;;6.37;5.60;;;2.10;99.90;;;3.15;78.81;94103.59;5029275;28;20600;-72
2020/12/01 08:15:32;;;;;;;6.23;5.63;;;2.10;99.90;;;3.15;78.79;94087.09;5020513;28;20184;-71
2020/12/01 08:18:03;;;;;;;4.90;4.10;;;2.10;99.90;;;3.12;78.66;94095.38;5056698;28;20203;-72
2020/12/01 08:20:30;;;;;;;3.77;3.37;;;2.10;99.90;;;3.17;78.77;94095.50;5060381;28;20184;-72
2020/12/01 08:23:10;;;;;;;3.90;3.43;;;2.10;99.90;;;3.08;78.83;94087.13;5074520;28;20256;-72
2020/12/01 08:25:37;;;;;;;3.70;3.30;;;2.00;99.90;;;2.94;78.45;94083.81;5075818;28;20182;-72
2020/12/01 08:28:33;;;;;;;3.40;3.10;;;1.90;99.90;;;2.94;77.98;94093.47;5083828;28;20610;-72
2020/12/01 08:31:26;;;;;;;3.40;3.10;;;1.90;99.90;;;2.82;78.75;94079.50;5084931;28;20191;-72
2020/12/01 08:34:19;;;;;;;3.93;3.17;;;1.80;99.90;;;2.74;79.06;94090.19;5058799;28;20273;-72
2020/12/01 08:37:19;;;;;;;4.40;3.13;;;1.70;99.90;;;2.70;78.47;94089.81;5071207;28;20587;-71
2020/12/01 08:40:37;;;;;;;3.53;3.23;;;1.60;99.90;;;2.66;78.56;94093.88;5076812;28;20178;-70
2020/12/01 08:43:16;;;;;;;4.33;3.37;;;1.60;99.90;;;2.65;78.84;94084.44;5035631;28;20785;-69
2020/12/01 08:46:06;;;;;;;3.80;3.00;;;1.60;99.90;;;2.63;78.43;94078.59;5028463;28;20176;-70
2020/12/01 08:48:42;;;;;;;5.35;4.85;;;1.50;99.90;;;2.61;78.64;94098.13;5037215;28;20922;-72
2020/12/01 08:51:32;;;;;;;4.30;3.90;;;1.50;99.90;;;2.71;79.04;94098.47;5030807;28;20194;-71
2020/12/01 08:54:24;;;;;;;3.60;3.30;;;1.50;99.90;;;2.82;78.89;94095.19;5029153;28;20583;-71
2020/12/01 08:57:09;;;;;;;3.97;3.57;;;1.60;99.90;;;2.96;78.19;94101.91;5029728;28;20199;-72
2020/12/01 08:59:42;;;;;;;3.83;3.30;;;1.80;99.90;;;3.08;78.94;94098.41;5040376;28;20624;-72
2020/12/01 09:02:10;;;;;;;4.47;3.43;;;1.90;99.90;;;3.14;79.11;94091.50;5044785;28;20188;-72
2020/12/01 09:04:38;;;;;;;4.20;3.80;;;2.00;99.90;;;3.21;78.80;94076.56;5050542;28;20195;-71
2020/12/01 09:07:29;;;;;;;4.23;3.80;;;2.00;99.90;;;3.28;78.87;94092.19;5025025;28;20646;-70
2020/12/01 09:10:37;;;;;;;3.87;3.47;;;2.20;99.90;;;3.41;78.80;94092.06;5032792;28;20206;-71
2020/12/01 09:13:16;;;;;;;4.30;3.90;;;2.20;99.90;;;3.60;78.58;94081.41;5040862;28;20217;-70
2020/12/01 09:16:02;;;;;;;4.23;3.57;;;2.40;99.90;;;3.77;79.33;94086.88;5018030;28;20271;-71
2020/12/01 09:24:23;;;;;;;4.50;4.10;;;2.80;99.90;;;4.17;79.40;94081.16;5014794;28;20331;-71
2020/12/01 09:27:18;;;;;;;4.20;3.80;;;3.00;99.90;;;4.36;78.63;94091.44;5013284;28;20196;-72
2020/12/01 09:29:51;;;;;;;4.07;3.57;;;3.30;99.90;;;4.58;79.09;94083.88;4933823;28;20199;-71
2020/12/01 09:32:23;;;;;;;4.20;3.60;;;3.50;99.90;;;4.59;78.94;94082.84;4942478;28;20249;-71
2020/12/01 09:34:50;;;;;;;3.40;3.07;;;3.60;99.90;;;4.70;78.77;94092.56;4950220;28;20258;-71
2020/12/01 09:37:18;;;;;;;3.40;2.97;;;3.70;99.90;;;4.82;79.15;94096.06;4933310;29;20203;-71
2020/12/01 09:39:45;;;;;;;3.97;3.57;;;3.80;99.90;;;4.98;78.94;94087.53;4944514;28;20740;-71
2020/12/01 09:42:25;;;;;;;2.70;2.50;;;4.00;99.90;;;4.83;79.21;94092.41;4956703;28;20198;-71
2020/12/01 09:47:56;;;;;;;3.63;3.33;;;4.00;99.90;;;4.91;78.75;94071.06;4952155;28;20302;-71
2020/12/01 09:50:25;;;;;;;3.27;2.97;;;4.10;99.90;;;5.11;78.72;94097.00;4939885;28;20209;-71
2020/12/01 09:55:47;;;;;;;3.30;3.00;;;4.30;99.90;;;5.26;78.67;94089.50;4935330;29;20177;-72
2020/12/01 10:08:30;;;;;;;2.97;2.73;;;4.60;99.90;;;5.55;78.92;94069.41;5075837;28;20236;-72
2020/12/01 10:14:08;;;;;;;2.87;2.57;;;4.80;99.90;;;5.90;79.09;94069.41;5063425;28;20193;-70
2020/12/01 10:19:50;;;;;;;2.80;2.60;;;5.00;99.90;;;5.87;79.17;94075.13;5050292;28;20196;-71
2020/12/01 10:28:26;;;;;;;2.60;2.40;;;5.40;99.90;;;6.40;78.35;94051.19;5050453;28;20202;-72
2020/12/01 10:35:45;;;;;;;2.80;2.57;;;6.00;99.90;;;6.54;78.45;94048.06;5067549;28;20291;-75
2020/12/01 10:38:11;;;;;;;4.43;3.67;;;6.00;99.90;;;6.47;78.79;94042.13;5050612;28;20179;-74
2020/12/01 10:40:39;;;;;;;3.10;2.80;;;6.00;99.90;;;6.44;77.96;94047.06;5030993;28;20185;-73
2020/12/01 10:43:07;;;;;;;2.97;2.67;;;6.00;99.90;;;6.21;78.30;94053.22;5066237;28;20208;-73
2020/12/01 10:45:33;;;;;;;2.93;2.60;;;5.80;99.90;;;6.29;79.06;94052.84;5051577;28;20712;-72
2020/12/01 10:47:59;;;;;;;3.30;3.00;;;5.90;99.90;;;6.14;78.51;94060.44;5042335;28;20209;-73
2020/12/01 10:50:29;;;;;;;3.20;2.90;;;5.70;99.90;;;5.96;78.42;94061.41;5059935;28;20200;-73
2020/12/01 10:52:56;;;;;;;3.57;3.27;;;5.60;99.90;;;5.85;78.66;94056.13;5079035;28;20664;-73
2020/12/01 10:55:31;;;;;;;3.23;2.90;;;5.50;99.90;;;5.76;78.57;94065.41;5076977;28;20216;-72
2020/12/01 10:57:58;;;;;;;4.30;3.33;;;5.30;99.90;;;5.50;78.60;94061.41;5057169;28;20276;-72
2020/12/01 11:00:27;;;;;;;3.50;3.20;;;5.10;99.90;;;5.62;77.68;94054.31;5077661;28;20681;-72
2020/12/01 11:02:54;;;;;;;3.43;2.90;;;5.10;99.90;;;5.74;78.15;94057.75;5072714;28;20600;-72
2020/12/01 11:05:32;;;;;;;3.47;3.17;;;5.10;99.90;;;5.73;78.43;94068.50;5078900;28;20190;-73
2020/12/01 11:07:59;;;;;;;3.50;3.20;;;5.10;99.90;;;5.56;78.68;94044.72;5073928;28;20684;-73
2020/12/01 11:10:26;;;;;;;4.87;3.27;;;5.00;99.90;;;5.49;78.38;94047.47;5067271;28;20191;-73
2020/12/01 11:12:52;;;;;;;3.30;3.00;;;5.00;99.90;;;5.37;78.22;94062.44;5074502;28;20195;-74
2020/12/01 11:15:18;;;;;;;3.80;3.30;;;4.80;99.90;;;5.34;78.19;94054.22;5073944;28;20262;-75
2020/12/01 11:17:44;;;;;;;3.67;3.20;;;4.80;99.90;;;5.30;78.17;94060.97;5066636;28;20190;-74
2020/12/01 11:20:12;;;;;;;3.97;3.33;;;4.70;99.90;;;5.23;77.79;94055.00;5070081;28;20271;-74
2020/12/01 11:22:38;;;;;;;3.50;3.20;;;4.70;99.90;;;5.24;78.22;94054.78;5083345;28;20187;-73
2020/12/01 11:25:06;;;;;;;3.60;3.30;;;4.70;99.90;;;5.25;77.64;94061.63;5091614;28;20184;-73
2020/12/01 11:27:31;;;;;;;3.67;3.00;;;4.70;99.90;;;5.12;78.18;94059.22;5074859;28;20200;-73
2020/12/01 11:29:57;;;;;;;3.80;3.50;;;4.50;99.90;;;5.07;77.67;94052.00;5079307;28;20434;-72
2020/12/01 11:32:23;;;;;;;3.73;3.43;;;4.50;99.90;;;5.23;78.27;94065.53;5063608;28;20273;-72
2020/12/01 11:34:49;;;;;;;5.13;3.90;;;4.60;99.90;;;5.25;78.35;94055.56;5075365;28;20187;-74